Time;durP1;ratioP1;P1;durP2;ratioP2;P2;SDS_P1;SDS_P2;PMS_P1;PMS_P2;Temp;Humidity;BMP_temperature;BMP_pressure;BME280_temperature;BME280_humidity;BME280_pressure;Samples;Min_cycle;Max_cycle;Signal;HPM_P1;HPM_P2
2024/01/18 00:01:17;;;;;;;10.88;8.85;;;2.30;49.70;;;;;;5044577;28;20060;-72
2024/01/18 00:03:46;;;;;;;9.43;8.18;;;2.30;49.70;;;;;;5046164;28;20106;-73
2024/01/18 00:06:12;;;;;;;10.48;8.30;;;2.30;49.70;;;;;;5046042;28;20759;-71
2024/01/18 00:08:38;;;;;;;12.27;9.15;;;2.30;50.20;;;;;;5040370;28;20026;-73
2024/01/18 00:11:04;;;;;;;9.32;8.00;;;2.20;49.50;;;;;;5039835;28;20105;-72
2024/01/18 00:13:31;;;;;;;10.60;8.25;;;2.20;49.60;;;;;;5042158;28;20029;-72
2024/01/18 00:15:57;;;;;;;14.25;9.23;;;2.20;49.50;;;;;;5045416;28;20029;-71
2024/01/18 00:18:23;;;;;;;10.00;8.23;;;2.20;49.60;;;;;;5040013;28;20355;-71
2024/01/18 00:20:49;;;;;;;10.10;8.63;;;2.20;49.60;;;;;;5038433;28;20029;-71
2024/01/18 00:23:16;;;;;;;9.10;8.13;;;2.20;49.60;;;;;;5042183;28;20245;-73
2024/01/18 00:25:42;;;;;;;11.80;8.85;;;2.10;49.40;;;;;;5044310;28;20074;-72
2024/01/18 00:28:10;;;;;;;12.10;8.77;;;2.10;49.40;;;;;;5046947;28;20029;-72
2024/01/18 00:30:37;;;;;;;11.32;8.77;;;2.10;49.50;;;;;;5019743;28;20627;-71
2024/01/18 00:33:05;;;;;;;9.13;8.23;;;2.00;49.30;;;;;;5048363;28;20016;-72
2024/01/18 00:35:31;;;;;;;9.48;8.20;;;2.00;49.30;;;;;;5042159;28;20033;-72
2024/01/18 00:37:57;;;;;;;9.80;8.20;;;2.00;49.30;;;;;;5049421;28;20671;-72
2024/01/18 00:40:27;;;;;;;9.63;8.07;;;1.90;49.10;;;;;;5043894;28;20580;-72
2024/01/18 00:42:53;;;;;;;9.40;8.13;;;1.90;49.20;;;;;;5047437;28;20032;-75
2024/01/18 00:45:19;;;;;;;11.02;8.52;;;1.90;49.20;;;;;;5047026;28;20033;-73
2024/01/18 00:47:45;;;;;;;9.02;7.97;;;1.90;49.20;;;;;;5048424;28;20082;-71
2024/01/18 00:50:11;;;;;;;10.43;7.97;;;1.90;49.20;;;;;;5040058;28;20175;-74
2024/01/18 00:52:38;;;;;;;10.48;8.05;;;1.90;49.20;;;;;;5046486;28;20036;-72
2024/01/18 00:55:04;;;;;;;9.15;7.57;;;1.80;49.10;;;;;;5043078;28;20395;-73
2024/01/18 00:57:30;;;;;;;10.90;8.77;;;1.80;49.10;;;;;;5039360;28;20127;-73
2024/01/18 00:59:56;;;;;;;9.52;7.75;;;1.70;48.90;;;;;;5037116;28;20610;-72
2024/01/18 01:02:22;;;;;;;11.68;8.07;;;1.80;49.10;;;;;;5036073;28;20123;-72
2024/01/18 01:04:48;;;;;;;11.18;8.93;;;1.70;48.90;;;;;;5031090;28;20040;-73
2024/01/18 01:07:14;;;;;;;9.20;8.15;;;1.70;48.90;;;;;;5028493;28;20024;-72
2024/01/18 01:09:41;;;;;;;10.05;8.43;;;1.70;48.90;;;;;;5030401;28;20041;-72
2024/01/18 01:12:08;;;;;;;10.60;7.95;;;1.70;48.90;;;;;;5034380;28;20601;-74
2024/01/18 01:14:34;;;;;;;8.32;7.43;;;1.60;48.70;;;;;;5022962;28;20056;-73
2024/01/18 01:17:00;;;;;;;11.05;8.65;;;1.60;48.80;;;;;;5020611;28;20035;-72
2024/01/18 01:19:27;;;;;;;9.73;7.57;;;1.60;48.80;;;;;;5030166;28;20036;-72
2024/01/18 01:21:52;;;;;;;10.32;8.38;;;1.60;48.80;;;;;;5033175;28;20028;-72
2024/01/18 01:24:19;;;;;;;9.65;7.47;;;1.50;48.60;;;;;;5023430;28;20029;-73
2024/01/18 01:26:45;;;;;;;10.45;7.75;;;1.50;48.70;;;;;;5035215;28;20476;-71
2024/01/18 01:29:15;;;;;;;10.63;7.90;;;1.50;48.70;;;;;;5022304;28;20030;-71
2024/01/18 01:31:41;;;;;;;9.82;7.63;;;1.40;48.60;;;;;;5023716;28;20037;-72
2024/01/18 01:34:07;;;;;;;10.48;8.18;;;1.40;48.60;;;;;;5030664;28;20036;-72
2024/01/18 01:36:33;;;;;;;9.20;7.75;;;1.30;48.50;;;;;;5037893;28;20734;-72
2024/01/18 01:38:59;;;;;;;8.20;7.38;;;1.30;48.50;;;;;;5032539;28;20113;-72
2024/01/18 01:41:25;;;;;;;10.93;7.80;;;1.30;48.60;;;;;;5034018;28;20041;-73
2024/01/18 01:44:01;;;;;;;9.13;7.70;;;1.30;48.50;;;;;;5028705;28;20033;-73
2024/01/18 01:46:28;;;;;;;9.88;8.05;;;1.20;48.40;;;;;;5026062;28;20426;-72
2024/01/18 01:49:03;;;;;;;8.38;7.47;;;1.20;48.40;;;;;;5036028;28;20036;-70
2024/01/18 01:51:36;;;;;;;11.25;8.38;;;1.10;48.20;;;;;;5022147;28;20449;-73
2024/01/18 01:54:04;;;;;;;10.48;8.65;;;1.10;48.30;;;;;;5031294;28;20048;-72
2024/01/18 01:56:35;;;;;;;8.85;7.95;;;1.00;48.10;;;;;;5024879;28;20500;-73
2024/01/18 01:59:02;;;;;;;11.02;8.00;;;1.00;48.10;;;;;;5038800;28;20485;-75
2024/01/18 02:01:28;;;;;;;11.73;8.02;;;0.90;48.00;;;;;;5043712;28;20079;-73
2024/01/18 02:03:55;;;;;;;11.77;8.88;;;0.90;48.00;;;;;;5042871;28;20207;-74
2024/01/18 02:06:21;;;;;;;11.20;8.10;;;0.90;48.10;;;;;;5029979;28;20718;-73
2024/01/18 02:08:47;;;;;;;9.75;8.25;;;0.80;47.90;;;;;;5039240;28;20039;-74
2024/01/18 02:11:14;;;;;;;9.25;8.07;;;0.80;47.90;;;;;;5031155;28;20036;-73
2024/01/18 02:13:40;;;;;;;10.15;8.45;;;0.80;48.00;;;;;;5033638;28;20033;-73
2024/01/18 02:16:06;;;;;;;10.45;8.15;;;0.70;47.80;;;;;;5027253;28;20033;-72
2024/01/18 02:18:33;;;;;;;12.43;8.48;;;0.70;47.80;;;;;;5034416;28;20356;-73
2024/01/18 02:20:59;;;;;;;9.50;7.82;;;0.60;47.70;;;;;;5025490;28;20025;-73
2024/01/18 02:23:28;;;;;;;8.18;7.28;;;0.60;47.70;;;;;;5027724;28;20604;-73
2024/01/18 02:25:54;;;;;;;9.13;7.40;;;0.60;47.70;;;;;;5027050;28;20029;-73
2024/01/18 02:28:20;;;;;;;10.20;7.93;;;0.50;47.60;;;;;;5032442;28;20413;-73
2024/01/18 02:30:49;;;;;;;10.57;7.57;;;0.50;47.60;;;;;;5035084;22;20092;-75
2024/01/18 02:33:15;;;;;;;8.82;7.22;;;0.50;47.60;;;;;;5004067;28;20533;-73
2024/01/18 02:35:41;;;;;;;12.90;8.13;;;0.50;47.60;;;;;;5000375;28;20706;-72
2024/01/18 02:38:08;;;;;;;9.57;8.57;;;0.40;47.50;;;;;;5003732;28;20044;-72
2024/01/18 02:40:34;;;;;;;9.45;7.57;;;0.40;47.40;;;;;;5002562;28;20036;-74
2024/01/18 02:43:01;;;;;;;10.75;8.90;;;0.40;47.50;;;;;;5002643;28;20025;-74
2024/01/18 02:48:07;;;;;;;9.15;7.82;;;0.30;47.30;;;;;;4982870;28;20061;-90
2024/01/18 02:50:32;;;;;;;9.73;8.48;;;0.30;47.30;;;;;;4966407;28;20089;-89
2024/01/18 02:52:58;;;;;;;11.65;8.48;;;0.20;47.10;;;;;;4981084;28;20517;-88
2024/01/18 02:55:24;;;;;;;10.80;8.77;;;0.20;47.20;;;;;;4964998;28;20039;-88
2024/01/18 02:57:51;;;;;;;10.43;7.82;;;0.20;47.20;;;;;;4967215;28;20047;-89
2024/01/18 03:00:17;;;;;;;10.63;8.45;;;0.10;47.10;;;;;;4968616;28;20031;-88
2024/01/18 03:02:42;;;;;;;10.38;8.10;;;0.10;47.10;;;;;;4967171;28;20031;-90
2024/01/18 03:05:10;;;;;;;10.95;8.27;;;0.10;47.10;;;;;;4967912;28;20037;-89
2024/01/18 03:07:36;;;;;;;10.15;7.38;;;0.10;47.10;;;;;;4982889;28;20077;-90
2024/01/18 03:10:04;;;;;;;10.13;8.43;;;0.00;46.90;;;;;;4966301;28;20177;-87
2024/01/18 03:12:30;;;;;;;10.52;8.27;;;0.00;47.00;;;;;;4983875;28;20109;-88
2024/01/18 03:14:55;;;;;;;8.85;7.95;;;0.00;47.00;;;;;;4963838;28;20030;-87
2024/01/18 03:17:21;;;;;;;10.43;7.70;;;-0.10;46.80;;;;;;4966948;28;20030;-87
2024/01/18 03:19:47;;;;;;;10.73;8.27;;;-0.10;46.80;;;;;;4966839;28;20026;-89
2024/01/18 03:22:13;;;;;;;10.57;7.55;;;-0.10;46.90;;;;;;4969999;28;20114;-88
2024/01/18 03:24:40;;;;;;;8.75;7.65;;;-0.20;46.70;;;;;;4964686;28;20027;-89
2024/01/18 03:27:06;;;;;;;11.90;9.00;;;-0.20;46.70;;;;;;4968275;28;20026;-88
2024/01/18 03:29:32;;;;;;;9.63;8.50;;;-0.20;46.70;;;;;;4963379;28;20053;-86
2024/01/18 03:31:57;;;;;;;9.63;8.45;;;-0.20;46.70;;;;;;4964999;28;20031;-87
2024/01/18 03:34:23;;;;;;;8.75;7.85;;;-0.20;46.70;;;;;;4981431;28;20069;-88
2024/01/18 03:36:49;;;;;;;10.15;8.02;;;-0.20;46.70;;;;;;4963668;28;20567;-87
2024/01/18 03:39:15;;;;;;;9.43;7.32;;;-0.30;46.60;;;;;;4948691;28;20104;-89
2024/01/18 03:41:42;;;;;;;9.93;8.45;;;-0.30;46.50;;;;;;4948758;28;20179;-88
2024/01/18 03:44:08;;;;;;;9.48;8.27;;;-0.30;46.50;;;;;;4980581;28;20033;-87
2024/01/18 03:46:34;;;;;;;11.05;8.15;;;-0.30;46.50;;;;;;4977061;28;20494;-85
2024/01/18 03:49:00;;;;;;;9.60;7.55;;;-0.40;46.40;;;;;;4965268;28;20061;-85
2024/01/18 03:51:26;;;;;;;10.48;8.38;;;-0.40;46.40;;;;;;4964014;28;20472;-85
2024/01/18 03:53:52;;;;;;;9.35;8.13;;;-0.40;46.40;;;;;;4945786;28;20083;-85
2024/01/18 03:56:18;;;;;;;11.07;8.35;;;-0.40;46.40;;;;;;4975752;28;20066;-84
2024/01/18 03:58:44;;;;;;;11.93;8.98;;;-0.50;46.20;;;;;;4963722;28;20039;-85
2024/01/18 04:01:10;;;;;;;9.93;7.85;;;-0.50;46.30;;;;;;4968115;28;20366;-86
2024/01/18 04:03:36;;;;;;;9.23;8.25;;;-0.50;46.30;;;;;;4974523;28;20034;-86
2024/01/18 04:06:02;;;;;;;10.27;8.13;;;-0.50;46.30;;;;;;4963720;28;20126;-86
2024/01/18 04:08:28;;;;;;;10.35;8.32;;;-0.50;46.30;;;;;;4963044;28;20105;-90
2024/01/18 04:10:54;;;;;;;8.82;7.72;;;-0.60;46.20;;;;;;4965369;28;20105;-89
2024/01/18 04:13:20;;;;;;;9.75;8.25;;;-0.60;46.20;;;;;;4968533;28;20102;-88
2024/01/18 04:15:48;;;;;;;10.88;7.93;;;-0.60;46.20;;;;;;4967141;28;20281;-89
2024/01/18 04:18:14;;;;;;;9.40;7.82;;;-0.60;46.20;;;;;;4966508;28;20031;-88
2024/01/18 04:20:40;;;;;;;11.25;8.18;;;-0.60;46.20;;;;;;4950099;28;20037;-87
2024/01/18 04:23:06;;;;;;;10.00;8.10;;;-0.70;46.00;;;;;;4980485;28;20035;-87
2024/01/18 04:25:32;;;;;;;10.85;8.82;;;-0.70;46.00;;;;;;4964175;28;20252;-86
2024/01/18 04:27:58;;;;;;;10.02;8.20;;;-0.70;46.00;;;;;;4970815;28;20185;-87
2024/01/18 04:30:25;;;;;;;10.02;7.97;;;-0.70;46.00;;;;;;4981856;28;20061;-85
2024/01/18 04:32:50;;;;;;;10.75;8.77;;;-0.80;45.90;;;;;;4965125;28;20453;-88
2024/01/18 04:35:16;;;;;;;9.80;8.15;;;-0.80;45.90;;;;;;4983195;28;20030;-87
2024/01/18 04:37:43;;;;;;;9.38;7.57;;;-0.80;45.90;;;;;;4967062;28;20026;-86
2024/01/18 04:40:10;;;;;;;10.73;8.40;;;-0.80;45.90;;;;;;4981871;28;20441;-87
2024/01/18 04:42:35;;;;;;;8.98;7.47;;;-0.80;45.90;;;;;;4968507;28;20454;-85
2024/01/18 04:45:01;;;;;;;8.48;7.57;;;-0.90;45.70;;;;;;4983383;28;20026;-86
2024/01/18 04:47:29;;;;;;;10.15;8.00;;;-0.90;45.70;;;;;;4967237;28;20523;-85
2024/01/18 04:49:57;;;;;;;9.98;7.88;;;-0.90;45.70;;;;;;4966420;28;20061;-84
2024/01/18 04:52:23;;;;;;;8.77;7.75;;;-0.90;45.80;;;;;;4966898;28;20050;-87
2024/01/18 04:54:50;;;;;;;10.55;7.63;;;-0.90;45.80;;;;;;4969444;28;20027;-88
2024/01/18 04:57:16;;;;;;;11.23;8.60;;;-0.90;45.80;;;;;;4965800;28;20049;-89
2024/01/18 04:59:43;;;;;;;10.57;7.30;;;-1.00;45.60;;;;;;4968562;28;20122;-88
2024/01/18 05:02:09;;;;;;;11.20;7.75;;;-1.00;45.60;;;;;;4968962;28;20477;-85
2024/01/18 05:04:36;;;;;;;9.32;7.75;;;-1.00;45.60;;;;;;4967149;28;20193;-86
2024/01/18 05:07:02;;;;;;;9.10;7.57;;;-1.00;45.70;;;;;;4964541;28;20023;-87
2024/01/18 05:09:30;;;;;;;8.85;7.13;;;-1.00;45.70;;;;;;4965696;28;20090;-87
2024/01/18 05:11:57;;;;;;;10.52;7.57;;;-1.10;45.50;;;;;;4984549;28;20045;-86
2024/01/18 05:14:24;;;;;;;9.40;7.93;;;-1.10;45.50;;;;;;4967238;28;20308;-86
2024/01/18 05:16:52;;;;;;;10.35;8.07;;;-1.10;45.60;;;;;;4967796;28;20031;-86
2024/01/18 05:19:18;;;;;;;9.77;7.65;;;-1.10;45.60;;;;;;4965103;28;20047;-85
2024/01/18 05:21:45;;;;;;;8.90;7.57;;;-1.20;45.40;;;;;;4965354;28;20279;-86
2024/01/18 05:24:11;;;;;;;10.27;8.15;;;-1.20;45.40;;;;;;4950976;28;20023;-86
2024/01/18 05:26:37;;;;;;;9.43;7.50;;;-1.20;45.40;;;;;;4969408;28;20556;-86
2024/01/18 05:29:05;;;;;;;9.77;7.28;;;-1.20;45.40;;;;;;4951083;28;20497;-87
2024/01/18 05:31:30;;;;;;;8.95;7.28;;;-1.20;45.40;;;;;;4967928;28;20051;-86
2024/01/18 05:33:57;;;;;;;9.93;7.63;;;-1.20;45.40;;;;;;4967174;28;20049;-83
2024/01/18 05:36:23;;;;;;;9.30;8.40;;;-1.30;45.20;;;;;;4968654;28;20035;-87
2024/01/18 05:38:50;;;;;;;8.20;6.95;;;-1.30;45.20;;;;;;4970595;28;20023;-87
2024/01/18 05:41:16;;;;;;;10.15;8.05;;;-1.30;45.20;;;;;;4983336;28;20469;-87
2024/01/18 05:43:42;;;;;;;10.75;7.50;;;-1.30;45.20;;;;;;4967439;28;20095;-87
2024/01/18 05:46:08;;;;;;;11.20;7.53;;;-1.30;45.20;;;;;;4982506;28;20118;-86
2024/01/18 05:48:35;;;;;;;10.02;8.00;;;-1.30;45.20;;;;;;4944910;28;20034;-87
2024/01/18 05:51:01;;;;;;;7.88;7.07;;;-1.30;45.20;;;;;;4962323;28;20038;-84
2024/01/18 05:53:30;;;;;;;9.75;7.53;;;-1.30;45.20;;;;;;4967891;28;20046;-85
2024/01/18 05:55:59;;;;;;;10.23;6.78;;;-1.30;45.20;;;;;;4969982;28;20138;-88
2024/01/18 05:58:26;;;;;;;10.48;7.68;;;-1.30;45.20;;;;;;4964406;28;20138;-89
2024/01/18 06:00:52;;;;;;;11.35;8.45;;;-1.40;45.00;;;;;;4963342;28;20146;-87
2024/01/18 06:03:18;;;;;;;8.60;7.30;;;-1.40;45.00;;;;;;4965981;28;20027;-86
2024/01/18 06:05:45;;;;;;;8.98;7.38;;;-1.40;45.00;;;;;;4979823;28;20393;-86
2024/01/18 06:08:10;;;;;;;9.82;7.03;;;-1.40;45.00;;;;;;4960891;28;20521;-86
2024/01/18 06:10:37;;;;;;;9.32;7.95;;;-1.40;45.00;;;;;;4971521;28;20153;-87
2024/01/18 06:13:03;;;;;;;9.90;7.65;;;-1.40;45.00;;;;;;4963999;28;20031;-88
2024/01/18 06:15:30;;;;;;;9.57;6.53;;;-1.40;45.10;;;;;;4946427;28;20045;-88
2024/01/18 06:18:03;;;;;;;9.75;8.15;;;-1.50;44.80;;;;;;4984832;28;20089;-88
2024/01/18 06:20:31;;;;;;;7.93;7.10;;;-1.50;44.90;;;;;;4984501;28;20041;-89
2024/01/18 06:23:01;;;;;;;10.00;7.00;;;-1.50;44.90;;;;;;4973073;28;20027;-88
2024/01/18 06:25:27;;;;;;;9.10;7.18;;;-1.50;44.90;;;;;;5002296;28;20081;-84
2024/01/18 06:27:54;;;;;;;9.40;7.05;;;-1.50;44.90;;;;;;4973276;28;20037;-88
2024/01/18 06:30:23;;;;;;;8.55;7.60;;;-1.50;44.90;;;;;;4989361;28;20031;-88
2024/01/18 06:32:49;;;;;;;9.82;7.13;;;-1.50;44.90;;;;;;4984688;28;20086;-88
2024/01/18 06:35:15;;;;;;;9.30;7.38;;;-1.60;44.70;;;;;;4969980;28;20085;-92
2024/01/18 06:37:41;;;;;;;8.65;7.60;;;-1.60;44.70;;;;;;4972562;28;20034;-90
2024/01/18 06:40:09;;;;;;;9.63;7.25;;;-1.60;44.70;;;;;;4984789;28;20034;-89
2024/01/18 06:42:35;;;;;;;10.10;7.85;;;-1.60;44.70;;;;;;5003161;28;20038;-86
2024/01/18 06:45:02;;;;;;;8.32;7.28;;;-1.50;44.90;;;;;;4984472;28;20357;-87
2024/01/18 06:47:29;;;;;;;10.90;7.10;;;-1.60;44.60;;;;;;4987609;28;20050;-86
2024/01/18 06:49:55;;;;;;;10.80;7.45;;;-1.60;44.60;;;;;;4988637;28;20045;-85
2024/01/18 06:52:21;;;;;;;9.27;6.95;;;-1.60;44.60;;;;;;4982252;28;20050;-87
2024/01/18 06:54:47;;;;;;;9.32;6.75;;;-1.60;44.60;;;;;;4979848;28;20030;-86
2024/01/18 06:57:13;;;;;;;7.97;7.18;;;-1.60;44.60;;;;;;5000895;28;20022;-84
2024/01/18 06:59:46;;;;;;;8.93;7.63;;;-1.60;44.60;;;;;;4984221;28;20300;-85
2024/01/18 07:02:12;;;;;;;11.38;6.53;;;-1.60;44.60;;;;;;4979280;28;20026;-85
2024/01/18 07:04:38;;;;;;;9.90;7.95;;;-1.60;44.60;;;;;;4978262;28;20053;-83
2024/01/18 07:07:05;;;;;;;11.32;7.10;;;-1.60;44.60;;;;;;4961670;28;20043;-83
2024/01/18 07:09:32;;;;;;;9.88;6.88;;;-1.70;44.40;;;;;;4975628;28;20496;-82
2024/01/18 07:11:59;;;;;;;9.25;7.28;;;-1.70;44.40;;;;;;4978282;28;20588;-82
2024/01/18 07:14:25;;;;;;;10.20;7.85;;;-1.70;44.40;;;;;;4949493;28;20104;-82
2024/01/18 07:16:51;;;;;;;8.93;6.80;;;-1.70;44.40;;;;;;4970018;28;20298;-87
2024/01/18 07:19:17;;;;;;;8.85;7.60;;;-1.70;44.40;;;;;;4979642;28;20507;-90
2024/01/18 07:21:44;;;;;;;9.93;7.78;;;-1.70;44.40;;;;;;4961337;28;20076;-85
2024/01/18 07:24:10;;;;;;;8.93;6.95;;;-1.70;44.40;;;;;;4967008;28;20599;-84
2024/01/18 07:26:36;;;;;;;8.40;7.10;;;-1.70;44.40;;;;;;4954335;28;20030;-87
2024/01/18 07:29:01;;;;;;;11.63;7.82;;;-1.80;44.20;;;;;;4963255;28;20046;-92
2024/01/18 07:31:28;;;;;;;7.82;6.75;;;-1.70;44.40;;;;;;4960727;28;20043;-87
2024/01/18 07:33:55;;;;;;;8.88;7.28;;;-1.80;44.20;;;;;;4962864;28;20439;-85
2024/01/18 07:36:21;;;;;;;9.02;7.53;;;-1.80;44.20;;;;;;4978852;28;20126;-80
2024/01/18 07:38:47;;;;;;;10.77;8.07;;;-1.80;44.20;;;;;;4965926;28;20030;-82
2024/01/18 07:41:13;;;;;;;10.43;8.15;;;-1.80;44.20;;;;;;4960730;28;20532;-88
2024/01/18 07:43:41;;;;;;;8.75;6.93;;;-1.80;44.20;;;;;;4958481;28;20023;-84
2024/01/18 07:46:07;;;;;;;9.73;7.13;;;-1.80;44.20;;;;;;4986299;28;20048;-84
2024/01/18 07:48:37;;;;;;;10.18;7.07;;;-1.80;44.20;;;;;;4970330;28;20034;-85
2024/01/18 07:51:04;;;;;;;8.98;7.20;;;-1.80;44.20;;;;;;4959318;28;20128;-84
2024/01/18 07:53:30;;;;;;;8.25;6.70;;;-1.70;44.60;;;;;;4986015;28;20023;-82
2024/01/18 07:55:56;;;;;;;7.45;6.38;;;-1.60;44.80;;;;;;4980207;28;20129;-85
2024/01/18 07:58:26;;;;;;;8.40;6.45;;;-1.60;44.80;;;;;;4988417;28;20097;-82
2024/01/18 08:00:53;;;;;;;7.88;6.60;;;-1.50;45.10;;;;;;4965488;28;20077;-84
2024/01/18 08:03:19;;;;;;;7.88;6.57;;;-1.40;45.30;;;;;;4977967;28;20054;-83
2024/01/18 08:05:45;;;;;;;12.57;6.43;;;-1.40;45.20;;;;;;4977008;28;20442;-86
2024/01/18 08:08:11;;;;;;;8.55;6.30;;;-1.30;45.30;;;;;;4972041;28;20030;-85
2024/01/18 08:10:39;;;;;;;9.18;6.30;;;-1.30;45.20;;;;;;4976459;28;20043;-85
2024/01/18 08:13:06;;;;;;;7.88;6.05;;;-1.30;45.20;;;;;;4955722;28;20027;-86
2024/01/18 08:15:32;;;;;;;8.70;6.13;;;-1.20;45.40;;;;;;4981478;28;20228;-85
2024/01/18 08:18:00;;;;;;;9.35;6.45;;;-1.30;45.20;;;;;;4981862;28;20643;-84
2024/01/18 08:20:26;;;;;;;36.95;10.82;;;-1.30;45.20;;;;;;4989257;28;20424;-83
2024/01/18 08:22:54;;;;;;;38.78;11.93;;;-1.20;45.50;;;;;;4992681;28;20104;-82
2024/01/18 08:25:20;;;;;;;32.70;9.85;;;-1.20;45.70;;;;;;4964431;28;20615;-85
2024/01/18 08:27:46;;;;;;;30.58;11.70;;;-1.20;45.90;;;;;;4997553;28;20094;-80
2024/01/18 08:30:13;;;;;;;31.33;10.23;;;-1.10;46.20;;;;;;4983450;28;20058;-81
2024/01/18 08:32:39;;;;;;;19.77;9.32;;;-1.00;46.40;;;;;;4981529;28;20038;-82
2024/01/18 08:35:06;;;;;;;22.10;10.15;;;-0.80;46.70;;;;;;4965553;28;20424;-82
2024/01/18 08:37:33;;;;;;;19.67;9.90;;;-0.70;46.80;;;;;;4961711;28;20045;-82
2024/01/18 08:39:59;;;;;;;17.27;9.73;;;-0.60;47.00;;;;;;4963311;28;20042;-82
2024/01/18 08:42:26;;;;;;;16.52;9.32;;;-0.40;47.30;;;;;;4963979;28;20078;-82
2024/01/18 08:44:52;;;;;;;15.90;8.70;;;-0.30;47.40;;;;;;4978180;28;20026;-81
2024/01/18 08:47:28;;;;;;;16.73;8.70;;;-0.20;47.60;;;;;;4964510;28;20065;-82
2024/01/18 08:49:54;;;;;;;19.63;9.43;;;-0.10;47.70;;;;;;4982948;28;20101;-83
2024/01/18 08:52:24;;;;;;;15.10;8.90;;;0.10;48.10;;;;;;4943975;28;20050;-88
2024/01/18 08:54:51;;;;;;;18.95;9.35;;;0.20;48.10;;;;;;4969176;28;20632;-93
2024/01/18 08:57:17;;;;;;;17.20;10.10;;;0.30;48.50;;;;;;4969581;28;20027;-90
2024/01/18 08:59:43;;;;;;;17.42;9.88;;;0.60;49.30;;;;;;4977686;28;20114;-93
2024/01/18 09:02:11;;;;;;;15.63;9.20;;;1.00;49.90;;;;;;4966963;28;20199;-91
2024/01/18 09:04:38;;;;;;;15.40;9.10;;;1.50;50.50;;;;;;4968304;28;20030;-90
2024/01/18 09:07:04;;;;;;;12.85;8.27;;;1.90;50.60;;;;;;4967749;28;20030;-91
2024/01/18 09:09:30;;;;;;;9.18;6.88;;;2.30;50.60;;;;;;4966225;28;20065;-88
2024/01/18 09:11:57;;;;;;;11.20;7.30;;;2.80;51.00;;;;;;4988140;28;20030;-92
2024/01/18 09:14:23;;;;;;;10.82;6.55;;;3.20;51.10;;;;;;4963594;28;20031;-92
2024/01/18 09:16:50;;;;;;;13.57;6.90;;;3.50;51.10;;;;;;4964846;28;20112;-94
2024/01/18 09:19:16;;;;;;;9.98;6.20;;;3.90;51.30;;;;;;4971295;28;20085;-81
2024/01/18 09:21:43;;;;;;;8.93;6.22;;;4.20;51.30;;;;;;5001113;28;20050;-81
2024/01/18 09:24:11;;;;;;;11.65;6.82;;;4.40;51.00;;;;;;4964202;28;20044;-82
2024/01/18 09:26:38;;;;;;;8.50;6.53;;;4.60;50.80;;;;;;4974008;28;20027;-82
2024/01/18 09:29:04;;;;;;;10.80;6.60;;;4.60;50.60;;;;;;4967779;28;20108;-81
2024/01/18 09:31:30;;;;;;;9.60;6.78;;;4.50;50.30;;;;;;4971556;28;20449;-82
2024/01/18 09:33:58;;;;;;;10.95;7.28;;;4.40;50.40;;;;;;4959853;28;20027;-83
2024/01/18 09:36:24;;;;;;;9.77;6.47;;;4.20;50.40;;;;;;4961860;28;20512;-86
2024/01/18 09:38:50;;;;;;;9.20;7.57;;;4.10;50.50;;;;;;4946306;28;20037;-84
2024/01/18 09:41:19;;;;;;;8.50;7.07;;;3.90;50.50;;;;;;4979236;28;20030;-88
2024/01/18 09:43:54;;;;;;;8.90;7.18;;;3.80;50.70;;;;;;4991380;28;20054;-84
2024/01/18 09:46:25;;;;;;;9.20;6.97;;;3.70;50.80;;;;;;4981243;28;20047;-83
2024/01/18 09:48:54;;;;;;;9.95;7.90;;;3.50;50.70;;;;;;4960164;28;20027;-83
2024/01/18 09:51:23;;;;;;;7.93;7.07;;;3.40;50.80;;;;;;4972484;28;20110;-84
2024/01/18 09:53:54;;;;;;;9.40;7.07;;;3.30;50.80;;;;;;4958378;28;20026;-82
2024/01/18 09:56:27;;;;;;;9.25;7.53;;;3.20;50.80;;;;;;4954922;28;20034;-82
2024/01/18 09:58:53;;;;;;;;;;;3.10;50.90;;;;;;4960779;28;20334;-84
2024/01/18 10:01:20;;;;;;;9.93;7.70;;;3.00;50.70;;;;;;4956315;28;19914;-84
2024/01/18 10:03:48;;;;;;;8.45;6.95;;;2.80;50.60;;;;;;4977857;28;20205;-85
2024/01/18 10:06:18;;;;;;;9.75;7.55;;;2.80;50.70;;;;;;4963933;28;20077;-85
2024/01/18 10:08:50;;;;;;;9.70;7.63;;;2.70;50.70;;;;;;4970536;28;20042;-85
2024/01/18 10:11:16;;;;;;;10.23;7.78;;;2.50;50.50;;;;;;4959985;28;20035;-85
2024/01/18 10:13:55;;;;;;;10.07;7.60;;;2.50;50.60;;;;;;4960292;28;20034;-83
2024/01/18 10:16:35;;;;;;;7.82;7.00;;;2.40;50.50;;;;;;4965842;28;20038;-84
2024/01/18 10:19:05;;;;;;;10.70;8.25;;;2.30;50.40;;;;;;4964624;28;20054;-82
2024/01/18 10:21:33;;;;;;;8.25;7.25;;;2.20;50.30;;;;;;4980133;28;20045;-79
2024/01/18 10:24:03;;;;;;;11.45;8.25;;;2.20;50.40;;;;;;4964242;28;20035;-80
2024/01/18 10:26:35;;;;;;;8.60;7.50;;;2.10;50.20;;;;;;4957735;28;20115;-81
2024/01/18 10:29:02;;;;;;;9.70;7.85;;;2.10;50.30;;;;;;4967694;28;20072;-80
2024/01/18 10:31:28;;;;;;;10.20;7.85;;;2.10;50.40;;;;;;4962936;28;20053;-81
2024/01/18 10:33:55;;;;;;;9.45;7.85;;;2.00;50.20;;;;;;4961471;28;20133;-82
2024/01/18 10:36:21;;;;;;;10.40;7.80;;;2.00;50.30;;;;;;4964981;28;20114;-82
2024/01/18 10:38:47;;;;;;;8.93;7.63;;;1.90;50.20;;;;;;4968536;28;20112;-82
2024/01/18 10:41:21;;;;;;;10.85;7.43;;;1.90;50.20;;;;;;4966237;28;20034;-83
2024/01/18 10:43:50;;;;;;;9.10;6.93;;;1.90;50.20;;;;;;4965461;28;20126;-84
2024/01/18 10:46:17;;;;;;;7.82;6.57;;;1.90;50.30;;;;;;4961306;28;20767;-83
2024/01/18 10:48:51;;;;;;;8.00;7.22;;;1.80;50.10;;;;;;4962411;28;20045;-83
2024/01/18 10:51:18;;;;;;;8.40;6.90;;;1.80;50.10;;;;;;4955591;28;20043;-81
2024/01/18 10:53:46;;;;;;;8.98;7.63;;;1.80;50.10;;;;;;4976175;28;20186;-83
2024/01/18 10:56:12;;;;;;;9.55;7.28;;;1.70;49.90;;;;;;4952379;28;20031;-83
2024/01/18 10:58:38;;;;;;;8.43;6.78;;;1.70;49.90;;;;;;4954706;28;20038;-83
2024/01/18 11:01:05;;;;;;;7.70;6.97;;;1.70;49.90;;;;;;4955494;28;20122;-83
2024/01/18 11:03:35;;;;;;;7.75;6.55;;;1.70;49.90;;;;;;4981742;28;20498;-83
2024/01/18 11:06:07;;;;;;;10.00;7.40;;;1.70;49.90;;;;;;4953603;28;20593;-85
2024/01/18 11:08:34;;;;;;;10.63;7.27;;;1.70;49.90;;;;;;4974295;28;20043;-83
2024/01/18 11:11:01;;;;;;;9.48;6.93;;;1.80;50.10;;;;;;4948097;28;20892;-78
2024/01/18 11:13:28;;;;;;;7.43;6.57;;;1.70;49.90;;;;;;4967106;28;20451;-84
2024/01/18 11:15:57;;;;;;;7.35;6.20;;;1.70;49.90;;;;;;4959694;28;20042;-82
2024/01/18 11:18:23;;;;;;;6.93;6.18;;;1.70;49.90;;;;;;4961461;28;20370;-82
2024/01/18 11:21:04;;;;;;;8.77;6.43;;;1.70;49.80;;;;;;4960881;28;20270;-83
2024/01/18 11:23:38;;;;;;;6.55;5.70;;;1.80;50.00;;;;;;4978043;28;20034;-81
2024/01/18 11:26:07;;;;;;;7.85;6.40;;;1.80;50.40;;;;;;4957426;28;20179;-81
2024/01/18 11:28:34;;;;;;;8.38;5.95;;;1.90;50.00;;;;;;4960796;28;20716;-81
2024/01/18 11:31:00;;;;;;;6.43;5.25;;;1.90;50.00;;;;;;4961120;28;20585;-81
2024/01/18 11:33:27;;;;;;;9.95;5.28;;;1.90;49.80;;;;;;4959278;28;20449;-81
2024/01/18 11:35:59;;;;;;;6.30;5.70;;;2.00;50.00;;;;;;4958328;28;20150;-80
2024/01/18 11:38:32;;;;;;;5.35;4.50;;;2.00;49.90;;;;;;4957341;28;20109;-83
2024/01/18 11:41:19;;;;;;;5.20;4.47;;;2.10;50.00;;;;;;4959743;28;20039;-81
2024/01/18 11:44:10;;;;;;;5.88;4.70;;;2.10;50.00;;;;;;4964423;28;20041;-81
2024/01/18 11:46:41;;;;;;;4.28;3.83;;;2.20;50.10;;;;;;4960683;28;20098;-79
2024/01/18 11:49:08;;;;;;;5.63;4.03;;;2.20;50.00;;;;;;4961507;28;20541;-82
2024/01/18 11:51:35;;;;;;;4.90;3.88;;;2.30;50.20;;;;;;4944553;28;20178;-81
2024/01/18 11:54:04;;;;;;;3.83;3.45;;;2.30;50.10;;;;;;4984361;28;20174;-81
2024/01/18 11:56:34;;;;;;;4.68;3.65;;;2.40;50.20;;;;;;4968600;28;20066;-83
2024/01/18 11:59:01;;;;;;;4.32;3.30;;;2.40;50.20;;;;;;4956266;28;20131;-82
2024/01/18 12:01:27;;;;;;;5.18;3.08;;;2.50;50.30;;;;;;4965203;28;20073;-82
2024/01/18 12:03:53;;;;;;;4.13;2.97;;;2.50;50.30;;;;;;4964704;28;20104;-81
2024/01/18 12:06:20;;;;;;;4.70;2.65;;;2.50;50.10;;;;;;4966053;28;20047;-82
2024/01/18 12:08:48;;;;;;;4.60;2.88;;;2.60;50.30;;;;;;4959205;28;20031;-81
2024/01/18 12:11:14;;;;;;;3.15;2.50;;;2.70;50.40;;;;;;4967682;28;20150;-83
2024/01/18 12:13:41;;;;;;;3.38;2.45;;;2.70;50.40;;;;;;4978324;28;20903;-80
2024/01/18 12:16:08;;;;;;;4.32;2.67;;;2.70;50.30;;;;;;4961276;28;20038;-80
2024/01/18 12:18:41;;;;;;;3.20;1.90;;;2.80;50.50;;;;;;4961754;28;20506;-80
2024/01/18 12:21:07;;;;;;;4.13;1.92;;;2.80;50.70;;;;;;4960453;28;20046;-81
2024/01/18 12:23:33;;;;;;;4.38;1.92;;;2.90;50.90;;;;;;4973619;28;20117;-80
2024/01/18 12:26:00;;;;;;;3.10;1.88;;;3.00;51.10;;;;;;4959530;28;20030;-80
2024/01/18 12:28:27;;;;;;;1.63;1.35;;;3.10;51.40;;;;;;4958078;28;20480;-80
2024/01/18 12:30:58;;;;;;;1.50;1.30;;;3.20;51.50;;;;;;4961824;28;20046;-81
2024/01/18 12:33:24;;;;;;;4.28;1.50;;;3.40;51.90;;;;;;4964547;28;20397;-80
2024/01/18 12:35:51;;;;;;;4.95;1.33;;;3.50;52.00;;;;;;4958995;28;20138;-82
2024/01/18 12:38:17;;;;;;;1.95;1.35;;;3.60;52.10;;;;;;4957586;28;20030;-83
2024/01/18 12:40:44;;;;;;;4.07;1.40;;;3.70;52.20;;;;;;4960826;28;20049;-81
2024/01/18 12:43:09;;;;;;;3.13;1.15;;;3.80;52.20;;;;;;4961666;28;20041;-81
2024/01/18 12:45:36;;;;;;;3.35;1.25;;;3.90;52.30;;;;;;4960250;28;20034;-81
2024/01/18 12:48:01;;;;;;;3.58;1.42;;;4.00;52.40;;;;;;4962875;28;20271;-81
2024/01/18 12:50:27;;;;;;;2.88;0.93;;;4.10;52.50;;;;;;4961652;28;20050;-81